CMA CGM Tosca — FMEL — position and weather

sailwx.info

Track history (hours):
 
Tides and Currents Weather Stations Pressure Air Temp Water Temp Dewpoint Dewpoint Depression Visibility Wind Speed Wind Dir Waves Ship Positions

CMA CGM Tosca

Last reported at 2014-Dec-09 21:33 UTC. Time now 2014-Dec-18 02:34 UTC.
Position S 29°38' E 032°01'.
Warning: this ship's position is 8 days out of date.

; draft 12 m.

Type: Cargo ship. MMSI: 228335900.

Date/timePositionNaut miles runAvg speedWind from/ knotsBaromVisibWave heightAir tempDewpointWater temp
2014-Dec-09 21:33S 29°38' E 032°01'1313.3
2014-Dec-09 20:33S 29°41' E 031°46'1515.4
2014-Dec-09 19:33S 29°45' E 031°29'1616.4
2014-Dec-09 18:33S 29°50' E 031°10'8 7.7
2014-Dec-09 17:31S 29°52' E 031°02'1 0.6
2014-Dec-09 16:31S 29°53' E 031°01'0 0.0
2014-Dec-09 15:31S 29°53' E 031°01'0 0.0
2014-Dec-09 14:25S 29°53' E 031°01'0 0.0
2014-Dec-09 13:19S 29°53' E 031°01'0 0.0
2014-Dec-09 12:31S 29°53' E 031°01'0 0.0
2014-Dec-09 11:31S 29°53' E 031°01'0 0.0
2014-Dec-09 10:25S 29°53' E 031°01'0 0.0
2014-Dec-09 09:31S 29°53' E 031°01'0 0.0
2014-Dec-09 08:31S 29°53' E 031°01'0 0.0
2014-Dec-09 07:31S 29°53' E 031°01'0 0.0
2014-Dec-09 06:25S 29°53' E 031°01'0 0.0
2014-Dec-09 05:31S 29°53' E 031°01'0 0.0
2014-Dec-09 04:31S 29°53' E 031°01'0 0.0
2014-Dec-09 03:31S 29°53' E 031°01'1 1.0
2014-Dec-09 02:33S 29°53' E 031°02'5 4.9
2014-Dec-09 01:33S 29°49' E 031°06'4 4.2
2014-Dec-09 00:31S 29°45' E 031°07'0 0.0
2014-Dec-08 23:31S 29°45' E 031°07'0 0.0
2014-Dec-08 22:31S 29°45' E 031°07'0 0.0
2014-Dec-08 21:31S 29°45' E 031°07'0 0.0
2014-Dec-08 20:31S 29°45' E 031°07'0 0.0
2014-Dec-08 19:31S 29°45' E 031°07'0 0.0
2014-Dec-08 18:31S 29°45' E 031°07'0 0.0
2014-Dec-08 17:25S 29°45' E 031°07'0 0.0
2014-Dec-08 16:31S 29°45' E 031°07'0 0.0
2014-Dec-08 15:31S 29°45' E 031°07'0 0.0
2014-Dec-08 14:31S 29°45' E 031°07'0 0.0
2014-Dec-08 13:31S 29°45' E 031°07'0 0.0
2014-Dec-08 12:31S 29°45' E 031°07'0 0.0
2014-Dec-08 11:31S 29°45' E 031°07'0 0.0
2014-Dec-08 10:31S 29°45' E 031°07'0 0.0
2014-Dec-08 09:31S 29°45' E 031°07'0 0.0
2014-Dec-08 08:31S 29°45' E 031°07'0 0.0
2014-Dec-08 07:31S 29°45' E 031°07'0 0.0
2014-Dec-08 06:31S 29°45' E 031°07'0 0.0
2014-Dec-08 05:31S 29°45' E 031°07'0 0.0
2014-Dec-08 04:31S 29°45' E 031°07'0 0.0
2014-Dec-08 03:31S 29°45' E 031°07'0 0.0
2014-Dec-08 02:31S 29°45' E 031°07'0 0.0
2014-Dec-08 01:31S 29°45' E 031°07'0 0.0
2014-Dec-08 00:31S 29°45' E 031°07'0 0.0
2014-Dec-07 23:31S 29°45' E 031°07'0 0.0
2014-Dec-07 22:31S 29°45' E 031°07'0 0.0
2014-Dec-07 21:31S 29°45' E 031°07'0 0.0
2014-Dec-07 20:31S 29°45' E 031°07'0 0.0
2014-Dec-07 19:31S 29°45' E 031°07'0 0.0
2014-Dec-07 18:31S 29°45' E 031°07'0 0.0
2014-Dec-07 17:31S 29°45' E 031°07'0 0.0
2014-Dec-07 16:31S 29°45' E 031°07'0 0.0
2014-Dec-07 15:31S 29°45' E 031°07'0 0.0
2014-Dec-07 14:31S 29°45' E 031°07'0 0.0
2014-Dec-07 13:31S 29°45' E 031°07'0 0.0
2014-Dec-07 12:31S 29°45' E 031°07'0 0.0
2014-Dec-07 11:31S 29°45' E 031°07'0 0.0
2014-Dec-07 10:31S 29°45' E 031°07'0 0.1
2014-Dec-07 09:31S 29°45' E 031°07'0 0.0
2014-Dec-07 08:31S 29°45' E 031°07'0 0.0
2014-Dec-07 07:31S 29°45' E 031°08'0 0.0
2014-Dec-07 06:31S 29°45' E 031°08'0 0.0
2014-Dec-07 05:31S 29°45' E 031°08'0 0.0
2014-Dec-07 04:25S 29°45' E 031°07'0 0.0
2014-Dec-07 03:25S 29°45' E 031°07'0 0.0
2014-Dec-07 02:31S 29°45' E 031°07'0 0.0
2014-Dec-07 01:19S 29°45' E 031°07'0 0.0
2014-Dec-07 00:25S 29°45' E 031°07'0 0.0
2014-Dec-06 23:25S 29°45' E 031°07'0 0.0
2014-Dec-06 22:07S 29°45' E 031°07'0 0.0
2014-Dec-06 21:31S 29°45' E 031°07'0 0.0
2014-Dec-06 20:31S 29°45' E 031°07'0 0.0
2014-Dec-06 19:31S 29°45' E 031°07'0 0.0
2014-Dec-06 15:31S 29°45' E 031°07'0 0.0
2014-Dec-06 12:07S 29°45' E 031°07'0 0.1
2014-Dec-06 11:25S 29°45' E 031°07'0 0.0
2014-Dec-06 10:31S 29°45' E 031°07'0 0.0
2014-Dec-06 09:31S 29°45' E 031°07'0 0.0
2014-Dec-06 08:31S 29°45' E 031°07'2 2.0
2014-Dec-06 07:33S 29°45' E 031°10'8 8.0
2014-Dec-06 06:33S 29°53' E 031°08'9 8.8
2014-Dec-06 05:33S 30°00' E 031°03'9 8.8
2014-Dec-06 04:33S 30°08' E 030°58'  
Track history (hours):
 
Tides and Currents Weather Stations Pressure Air Temp Water Temp Dewpoint Dewpoint Depression Visibility Wind Speed Wind Dir Waves Ship Positions

CMA CGM Tosca

Last reported at 2014-Dec-09 21:33 UTC. Time now 2014-Dec-18 02:34 UTC.
Position S 29°38' E 032°01'.
Warning: this ship's position is 8 days out of date.

; draft 12 m.

Type: Cargo ship. MMSI: 228335900.

Date/timePositionNaut miles runAvg speedWind from/ knotsBaromVisibWave heightAir tempDewpointWater temp
2014-Dec-09 21:33S 29°38' E 032°01'1313.3
2014-Dec-09 20:33S 29°41' E 031°46'1515.4
2014-Dec-09 19:33S 29°45' E 031°29'1616.4
2014-Dec-09 18:33S 29°50' E 031°10'8 7.7
2014-Dec-09 17:31S 29°52' E 031°02'1 0.6
2014-Dec-09 16:31S 29°53' E 031°01'0 0.0
2014-Dec-09 15:31S 29°53' E 031°01'0 0.0
2014-Dec-09 14:25S 29°53' E 031°01'0 0.0
2014-Dec-09 13:19S 29°53' E 031°01'0 0.0
2014-Dec-09 12:31S 29°53' E 031°01'0 0.0
2014-Dec-09 11:31S 29°53' E 031°01'0 0.0
2014-Dec-09 10:25S 29°53' E 031°01'0 0.0
2014-Dec-09 09:31S 29°53' E 031°01'0 0.0
2014-Dec-09 08:31S 29°53' E 031°01'0 0.0
2014-Dec-09 07:31S 29°53' E 031°01'0 0.0
2014-Dec-09 06:25S 29°53' E 031°01'0 0.0
2014-Dec-09 05:31S 29°53' E 031°01'0 0.0
2014-Dec-09 04:31S 29°53' E 031°01'0 0.0
2014-Dec-09 03:31S 29°53' E 031°01'1 1.0
2014-Dec-09 02:33S 29°53' E 031°02'5 4.9
2014-Dec-09 01:33S 29°49' E 031°06'4 4.2
2014-Dec-09 00:31S 29°45' E 031°07'0 0.0
2014-Dec-08 23:31S 29°45' E 031°07'0 0.0
2014-Dec-08 22:31S 29°45' E 031°07'0 0.0
2014-Dec-08 21:31S 29°45' E 031°07'0 0.0
2014-Dec-08 20:31S 29°45' E 031°07'0 0.0
2014-Dec-08 19:31S 29°45' E 031°07'0 0.0
2014-Dec-08 18:31S 29°45' E 031°07'0 0.0
2014-Dec-08 17:25S 29°45' E 031°07'0 0.0
2014-Dec-08 16:31S 29°45' E 031°07'0 0.0
2014-Dec-08 15:31S 29°45' E 031°07'0 0.0
2014-Dec-08 14:31S 29°45' E 031°07'0 0.0
2014-Dec-08 13:31S 29°45' E 031°07'0 0.0
2014-Dec-08 12:31S 29°45' E 031°07'0 0.0
2014-Dec-08 11:31S 29°45' E 031°07'0 0.0
2014-Dec-08 10:31S 29°45' E 031°07'0 0.0
2014-Dec-08 09:31S 29°45' E 031°07'0 0.0
2014-Dec-08 08:31S 29°45' E 031°07'0 0.0
2014-Dec-08 07:31S 29°45' E 031°07'0 0.0
2014-Dec-08 06:31S 29°45' E 031°07'0 0.0
2014-Dec-08 05:31S 29°45' E 031°07'0 0.0
2014-Dec-08 04:31S 29°45' E 031°07'0 0.0
2014-Dec-08 03:31S 29°45' E 031°07'0 0.0
2014-Dec-08 02:31S 29°45' E 031°07'0 0.0
2014-Dec-08 01:31S 29°45' E 031°07'0 0.0
2014-Dec-08 00:31S 29°45' E 031°07'0 0.0
2014-Dec-07 23:31S 29°45' E 031°07'0 0.0
2014-Dec-07 22:31S 29°45' E 031°07'0 0.0
2014-Dec-07 21:31S 29°45' E 031°07'0 0.0
2014-Dec-07 20:31S 29°45' E 031°07'0 0.0
2014-Dec-07 19:31S 29°45' E 031°07'0 0.0
2014-Dec-07 18:31S 29°45' E 031°07'0 0.0
2014-Dec-07 17:31S 29°45' E 031°07'0 0.0
2014-Dec-07 16:31S 29°45' E 031°07'0 0.0
2014-Dec-07 15:31S 29°45' E 031°07'0 0.0
2014-Dec-07 14:31S 29°45' E 031°07'0 0.0
2014-Dec-07 13:31S 29°45' E 031°07'0 0.0
2014-Dec-07 12:31S 29°45' E 031°07'0 0.0
2014-Dec-07 11:31S 29°45' E 031°07'0 0.0
2014-Dec-07 10:31S 29°45' E 031°07'0 0.1
2014-Dec-07 09:31S 29°45' E 031°07'0 0.0
2014-Dec-07 08:31S 29°45' E 031°07'0 0.0
2014-Dec-07 07:31S 29°45' E 031°08'0 0.0
2014-Dec-07 06:31S 29°45' E 031°08'0 0.0
2014-Dec-07 05:31S 29°45' E 031°08'0 0.0
2014-Dec-07 04:25S 29°45' E 031°07'0 0.0
2014-Dec-07 03:25S 29°45' E 031°07'0 0.0
2014-Dec-07 02:31S 29°45' E 031°07'0 0.0
2014-Dec-07 01:19S 29°45' E 031°07'0 0.0
2014-Dec-07 00:25S 29°45' E 031°07'0 0.0
2014-Dec-06 23:25S 29°45' E 031°07'0 0.0
2014-Dec-06 22:07S 29°45' E 031°07'0 0.0
2014-Dec-06 21:31S 29°45' E 031°07'0 0.0
2014-Dec-06 20:31S 29°45' E 031°07'0 0.0
2014-Dec-06 19:31S 29°45' E 031°07'0 0.0
2014-Dec-06 15:31S 29°45' E 031°07'0 0.0
2014-Dec-06 12:07S 29°45' E 031°07'0 0.1
2014-Dec-06 11:25S 29°45' E 031°07'0 0.0
2014-Dec-06 10:31S 29°45' E 031°07'0 0.0
2014-Dec-06 09:31S 29°45' E 031°07'0 0.0
2014-Dec-06 08:31S 29°45' E 031°07'2 2.0
2014-Dec-06 07:33S 29°45' E 031°10'8 8.0
2014-Dec-06 06:33S 29°53' E 031°08'9 8.8
2014-Dec-06 05:33S 30°00' E 031°03'9 8.8
2014-Dec-06 04:33S 30°08' E 030°58'  

Dump ship's entire track history